createdAt,value
2019-05-14T00:01:42.274Z,99.90
2019-05-14T00:04:12.840Z,99.90
2019-05-14T00:06:42.663Z,99.90
2019-05-14T00:09:13.042Z,99.90
2019-05-14T00:11:43.402Z,99.90
2019-05-14T00:14:13.246Z,99.90
2019-05-14T00:16:43.387Z,99.90
2019-05-14T00:19:13.230Z,99.90
2019-05-14T00:21:43.868Z,99.90
2019-05-14T00:24:13.976Z,99.90
2019-05-14T00:26:44.336Z,99.90
2019-05-14T00:29:14.207Z,99.90
2019-05-14T00:31:44.682Z,99.90
2019-05-14T00:34:14.587Z,99.90
2019-05-14T00:36:45.231Z,99.90
2019-05-14T00:39:15.322Z,99.90
2019-05-14T00:41:45.436Z,99.90
2019-05-14T00:44:15.454Z,99.90
2019-05-14T00:46:45.292Z,99.90
2019-05-14T00:49:15.131Z,99.90
2019-05-14T00:51:44.993Z,99.90
2019-05-14T00:54:14.830Z,99.90
2019-05-14T00:56:44.682Z,99.90
2019-05-14T00:59:14.507Z,99.90
2019-05-14T01:01:44.351Z,99.90
2019-05-14T03:10:19.418Z,98.60
2019-05-14T03:12:50.100Z,98.60
2019-05-14T03:15:20.377Z,98.40
2019-05-14T03:17:50.582Z,99.30
2019-05-14T03:20:20.350Z,99.00
2019-05-14T03:23:01.845Z,98.30
2019-05-14T03:25:21.704Z,98.30
2019-05-14T03:27:51.551Z,98.00
2019-05-14T03:30:23.292Z,98.20
2019-05-14T03:32:53.754Z,98.30
2019-05-14T03:35:33.295Z,98.30
2019-05-14T03:37:55.362Z,98.30
2019-05-14T03:40:25.210Z,98.10
2019-05-14T03:42:55.038Z,98.00
2019-05-14T03:45:24.870Z,99.30
2019-05-14T03:47:54.784Z,99.10
2019-05-14T03:50:24.978Z,98.40
2019-05-14T03:52:55.093Z,98.70
2019-05-14T03:55:25.487Z,98.10
2019-05-14T03:57:55.323Z,98.50
2019-05-14T04:00:50.048Z,97.40
2019-05-14T04:03:20.462Z,99.90
2019-05-14T04:05:50.719Z,99.90
2019-05-14T04:08:21.565Z,99.90
2019-05-14T04:10:54.627Z,99.90
2019-05-14T04:13:24.677Z,99.90
2019-05-14T04:16:14.407Z,99.90
2019-05-14T04:18:50.095Z,99.90
2019-05-14T04:21:20.951Z,99.90
2019-05-14T04:23:51.504Z,99.90
2019-05-14T04:26:22.225Z,99.90
2019-05-14T04:28:52.208Z,99.90
2019-05-14T04:31:22.715Z,99.90
2019-05-14T04:33:54.267Z,99.90
2019-05-14T04:36:24.680Z,99.90
2019-05-14T04:38:55.573Z,99.90
2019-05-14T04:41:25.873Z,99.90
2019-05-14T04:43:59.210Z,99.90
2019-05-14T04:46:30.350Z,99.90
2019-05-14T04:48:59.799Z,99.90
2019-05-14T04:51:30.612Z,99.90
2019-05-14T04:54:00.590Z,99.90
2019-05-14T04:56:30.825Z,99.90
2019-05-14T04:59:01.463Z,99.90
2019-05-14T05:01:31.380Z,99.90
2019-05-14T05:04:01.219Z,99.90
2019-05-14T05:06:31.088Z,99.90
2019-05-14T05:09:00.960Z,99.90
2019-05-14T05:11:30.818Z,99.90
2019-05-14T05:14:00.679Z,99.90
2019-05-14T05:16:30.850Z,99.90
2019-05-14T05:19:19.875Z,99.90
2019-05-14T05:21:49.720Z,99.90
2019-05-14T05:24:19.533Z,99.90
2019-05-14T05:26:49.386Z,99.90
2019-05-14T05:29:19.553Z,99.90
2019-05-14T05:31:49.492Z,99.90
2019-05-14T05:34:22.412Z,99.90
2019-05-14T05:36:52.803Z,99.90
2019-05-14T05:39:23.021Z,99.90
2019-05-14T05:41:53.191Z,99.90
2019-05-14T05:44:23.128Z,99.90
2019-05-14T05:46:53.281Z,99.90
2019-05-14T05:49:23.422Z,99.90
2019-05-14T05:51:53.888Z,99.90
2019-05-14T05:54:24.320Z,99.90
2019-05-14T05:56:54.242Z,99.90
2019-05-14T05:59:24.975Z,99.90
2019-05-14T06:01:58.459Z,99.90
2019-05-14T06:04:29.167Z,99.90
2019-05-14T06:07:02.528Z,99.90
2019-05-14T06:09:30.898Z,99.90
2019-05-14T06:12:01.571Z,99.90
2019-05-14T06:14:31.804Z,99.90
2019-05-14T06:17:01.658Z,99.90
2019-05-14T06:19:31.515Z,99.90
2019-05-14T06:22:04.147Z,99.90
2019-05-14T06:24:32.990Z,99.90
2019-05-14T06:27:02.811Z,99.90
2019-05-14T06:29:32.661Z,99.90
2019-05-14T06:32:02.485Z,99.90
2019-05-14T06:34:32.342Z,99.90
2019-05-14T06:37:02.189Z,99.90
2019-05-14T06:39:31.951Z,99.90
2019-05-14T06:42:01.711Z,99.90
2019-05-14T06:44:31.411Z,99.90
2019-05-14T06:47:01.269Z,99.90
2019-05-14T06:49:31.114Z,99.90
2019-05-14T06:52:01.038Z,99.90
2019-05-14T06:54:30.947Z,99.90
2019-05-14T06:57:01.206Z,99.90
2019-05-14T06:59:30.869Z,97.30
2019-05-14T07:02:00.977Z,90.70
2019-05-14T07:04:31.265Z,88.40
2019-05-14T07:07:01.306Z,90.70
2019-05-14T07:09:31.916Z,93.00
2019-05-14T07:12:02.554Z,91.70
2019-05-14T07:14:32.407Z,91.50
2019-05-14T07:17:02.342Z,90.90
2019-05-14T07:19:32.522Z,90.40
2019-05-14T07:22:02.298Z,85.40
2019-05-14T07:24:32.069Z,79.80
2019-05-14T07:27:01.914Z,79.00
2019-05-14T07:29:31.978Z,71.50
2019-05-14T07:32:02.082Z,61.10
2019-05-14T07:34:32.329Z,54.40
2019-05-14T07:37:02.826Z,59.10
2019-05-14T07:39:32.592Z,51.90
2019-05-14T07:42:02.555Z,51.50
2019-05-14T07:44:32.404Z,50.70
2019-05-14T07:47:02.322Z,48.80
2019-05-14T07:49:32.426Z,45.90
2019-05-14T07:52:02.294Z,48.40
2019-05-14T07:54:32.317Z,46.20
2019-05-14T07:57:02.621Z,44.30
2019-05-14T07:59:33.058Z,41.80
2019-05-14T08:02:03.135Z,41.80
2019-05-14T08:04:33.801Z,42.20
2019-05-14T08:07:03.662Z,41.40
2019-05-14T08:09:33.454Z,42.00
2019-05-14T08:12:03.278Z,41.70
2019-05-14T08:14:42.176Z,39.80
2019-05-14T08:17:08.759Z,43.60
2019-05-14T08:19:39.642Z,40.60
2019-05-14T08:22:10.109Z,38.10
2019-05-14T08:24:40.235Z,39.90
2019-05-14T08:27:10.277Z,38.50
2019-05-14T08:29:40.424Z,39.10
2019-05-14T08:32:10.515Z,37.30
2019-05-14T08:34:40.820Z,39.20
2019-05-14T08:37:11.304Z,35.80
2019-05-14T08:39:41.485Z,40.80
2019-05-14T08:42:11.647Z,36.80
2019-05-14T08:44:41.470Z,38.80
2019-05-14T08:47:12.088Z,36.90
2019-05-14T08:49:46.163Z,38.40
2019-05-14T08:52:16.090Z,33.40
2019-05-14T08:54:45.636Z,37.90
2019-05-14T08:57:18.673Z,35.30
2019-05-14T08:59:48.632Z,36.50
2019-05-14T09:02:19.556Z,38.00
2019-05-14T09:04:53.913Z,36.60
2019-05-14T09:07:21.923Z,39.40
2019-05-14T09:09:52.195Z,36.90
2019-05-14T09:12:30.622Z,34.30
2019-05-14T09:15:00.663Z,34.90
2019-05-14T09:17:30.475Z,36.60
2019-05-14T09:20:06.557Z,36.50
2019-05-14T09:22:32.747Z,33.60
2019-05-14T09:25:08.475Z,37.60
2019-05-14T09:27:39.119Z,37.70
2019-05-14T09:30:10.003Z,36.50
2019-05-14T09:32:40.167Z,36.70
2019-05-14T09:35:10.325Z,35.90
2019-05-14T09:37:40.206Z,37.20
2019-05-14T09:40:11.218Z,35.90
2019-05-14T09:42:41.885Z,35.00
2019-05-14T09:45:12.244Z,35.50
2019-05-14T09:47:42.825Z,36.90
2019-05-14T09:50:19.236Z,36.50
2019-05-14T09:52:45.199Z,35.30
2019-05-14T09:55:15.477Z,37.40
2019-05-14T09:57:45.512Z,35.70
2019-05-14T10:00:15.531Z,38.20
2019-05-14T10:02:49.460Z,36.40
2019-05-14T10:05:19.778Z,36.30
2019-05-14T10:07:50.415Z,34.30
2019-05-14T10:10:20.655Z,35.30
2019-05-14T10:12:56.411Z,36.80
2019-05-14T10:15:22.923Z,37.20
2019-05-14T10:18:12.643Z,36.50
2019-05-14T10:20:46.033Z,37.00
2019-05-14T10:23:14.188Z,34.80
2019-05-14T10:25:44.283Z,33.90
2019-05-14T10:28:14.113Z,36.30
2019-05-14T10:30:44.500Z,37.80
2019-05-14T10:33:15.289Z,38.10
2019-05-14T10:35:48.169Z,38.50
2019-05-14T10:38:19.053Z,37.10
2019-05-14T10:40:49.130Z,37.70
2019-05-14T10:43:19.605Z,37.10
2019-05-14T10:45:49.935Z,38.10
2019-05-14T10:48:19.888Z,37.60
2019-05-14T10:50:58.902Z,40.00
2019-05-14T10:53:21.255Z,39.40
2019-05-14T10:56:10.464Z,38.70
2019-05-14T10:58:40.217Z,36.40
2019-05-14T11:01:11.376Z,40.30
2019-05-14T11:03:41.450Z,37.20
2019-05-14T11:06:11.867Z,36.90
2019-05-14T11:08:42.110Z,38.70
2019-05-14T11:11:12.038Z,38.30
2019-05-14T11:13:45.551Z,38.30
2019-05-14T11:16:15.696Z,39.20
2019-05-14T11:18:45.594Z,38.60
2019-05-14T11:21:24.837Z,37.60
2019-05-14T11:23:49.128Z,39.60
2019-05-14T11:26:19.246Z,39.00
2019-05-14T11:28:49.606Z,40.70
2019-05-14T11:31:19.588Z,39.50
2019-05-14T11:33:50.068Z,41.80
2019-05-14T11:36:19.927Z,42.20
2019-05-14T11:38:50.982Z,40.50
2019-05-14T11:41:21.063Z,42.30
2019-05-14T11:43:51.369Z,40.90
2019-05-14T11:46:50.747Z,41.00
2019-05-14T11:49:19.379Z,40.30
2019-05-14T11:52:08.601Z,42.00
2019-05-14T11:54:23.139Z,38.20
2019-05-14T11:56:53.227Z,39.40
2019-05-14T11:59:23.597Z,38.50
2019-05-14T12:01:55.032Z,36.80
2019-05-14T12:04:28.216Z,37.20
2019-05-14T12:07:01.805Z,39.50
2019-05-14T12:09:31.825Z,37.60
2019-05-14T12:12:01.697Z,37.30
2019-05-14T12:14:31.866Z,39.70
2019-05-14T12:17:02.534Z,39.40
2019-05-14T12:19:33.263Z,39.10
2019-05-14T12:22:07.648Z,40.50
2019-05-14T12:24:34.662Z,39.90
2019-05-14T12:27:04.572Z,41.00
2019-05-14T12:29:34.493Z,42.70
2019-05-14T12:32:04.423Z,42.40
2019-05-14T12:34:34.266Z,42.40
2019-05-14T12:37:04.110Z,42.20
2019-05-14T12:39:33.995Z,42.90
2019-05-14T12:42:03.911Z,42.20
2019-05-14T12:44:37.395Z,41.30
2019-05-14T12:47:06.139Z,43.40
2019-05-14T12:49:38.518Z,42.50
2019-05-14T12:52:19.174Z,42.70
2019-05-14T12:54:39.747Z,43.10
2019-05-14T12:57:09.920Z,43.50
2019-05-14T12:59:40.034Z,45.10
2019-05-14T13:02:10.562Z,44.00
2019-05-14T13:04:41.091Z,43.80
2019-05-14T13:07:11.294Z,43.00
2019-05-14T13:09:41.117Z,42.70
2019-05-14T13:12:11.541Z,42.90
2019-05-14T13:14:42.495Z,43.60
2019-05-14T13:17:12.438Z,44.20
2019-05-14T13:19:42.786Z,43.70
2019-05-14T13:22:16.362Z,44.40
2019-05-14T13:24:44.982Z,45.30
2019-05-14T13:27:14.919Z,44.20
2019-05-14T13:29:44.790Z,44.90
2019-05-14T13:32:14.713Z,46.50
2019-05-14T13:34:44.537Z,45.90
2019-05-14T13:37:14.463Z,44.40
2019-05-14T13:39:44.294Z,42.50
2019-05-14T13:42:14.088Z,42.60
2019-05-14T13:44:43.964Z,40.60
2019-05-14T13:47:13.885Z,41.40
2019-05-14T13:49:43.712Z,44.70
2019-05-14T13:52:13.562Z,43.70
2019-05-14T13:58:25.076Z,45.50
2019-05-14T14:00:54.769Z,46.30
2019-05-14T14:03:24.465Z,46.20
2019-05-14T14:05:54.251Z,44.50
2019-05-14T14:08:23.978Z,43.10
2019-05-14T14:10:54.407Z,43.10
2019-05-14T14:13:24.661Z,43.90
2019-05-14T14:15:54.454Z,43.30
2019-05-14T14:18:26.291Z,45.30
2019-05-14T14:20:55.652Z,44.40
2019-05-14T14:23:30.424Z,45.40
2019-05-14T14:25:59.609Z,46.10
2019-05-14T14:28:29.368Z,46.20
2019-05-14T14:30:59.633Z,45.90
2019-05-14T14:33:29.684Z,45.30
2019-05-14T14:35:59.747Z,44.80
2019-05-14T14:38:29.642Z,46.30
2019-05-14T14:40:59.742Z,45.60
2019-05-14T14:43:29.749Z,45.50
2019-05-14T14:46:00.075Z,46.40
2019-05-14T14:48:30.664Z,45.80
2019-05-14T14:51:00.901Z,43.20
2019-05-14T14:53:43.133Z,43.80
2019-05-14T14:56:02.903Z,43.80
2019-05-14T14:58:33.150Z,43.80
2019-05-14T15:01:04.255Z,45.20
2019-05-14T15:03:34.198Z,45.10
2019-05-14T15:06:04.342Z,45.50
2019-05-14T15:08:34.475Z,46.20
2019-05-14T15:11:04.545Z,46.00
2019-05-14T15:13:34.710Z,46.40
2019-05-14T15:16:04.539Z,47.60
2019-05-14T15:18:34.902Z,47.20
2019-05-14T15:21:04.783Z,45.80
2019-05-14T15:23:34.642Z,45.90
2019-05-14T15:26:04.723Z,45.40
2019-05-14T15:28:35.059Z,45.80
2019-05-14T15:31:04.869Z,46.00
2019-05-14T15:33:34.698Z,44.90
2019-05-14T15:36:04.526Z,44.20
2019-05-14T15:38:34.588Z,45.10
2019-05-14T15:41:04.399Z,45.30
2019-05-14T15:43:34.263Z,46.00
2019-05-14T15:46:05.102Z,45.90
2019-05-14T15:48:34.954Z,46.90
2019-05-14T15:51:05.600Z,45.80
2019-05-14T15:53:38.630Z,45.80
2019-05-14T15:56:08.120Z,45.10
2019-05-14T15:58:39.039Z,44.50
2019-05-14T16:01:10.399Z,44.40
2019-05-14T16:03:41.737Z,45.50
2019-05-14T16:06:11.824Z,44.90
2019-05-14T16:08:41.559Z,44.40
2019-05-14T16:11:11.737Z,44.60
2019-05-14T16:13:41.998Z,44.20
2019-05-14T16:16:11.806Z,44.50
2019-05-14T16:18:41.914Z,44.30
2019-05-14T16:21:11.934Z,44.20
2019-05-14T16:23:41.754Z,43.80
2019-05-14T16:26:11.628Z,44.30
2019-05-14T16:28:41.543Z,43.60
2019-05-14T16:31:11.858Z,44.80
2019-05-14T16:33:42.024Z,44.60
2019-05-14T16:36:12.078Z,45.30
2019-05-14T16:38:42.066Z,45.20
2019-05-14T16:44:41.986Z,45.60
2019-05-14T16:47:11.787Z,44.60
2019-05-14T16:49:41.616Z,45.40
2019-05-14T16:52:11.867Z,44.50
2019-05-14T16:54:42.100Z,44.10
2019-05-14T16:57:11.976Z,43.60
2019-05-14T16:59:42.190Z,43.50
2019-05-14T17:02:13.087Z,44.80
2019-05-14T17:04:42.876Z,44.80
2019-05-14T17:07:14.304Z,45.90
2019-05-14T17:09:44.122Z,45.60
2019-05-14T17:12:14.474Z,46.40
2019-05-14T17:14:44.810Z,46.20
2019-05-14T17:17:14.918Z,46.60
2019-05-14T17:19:45.380Z,46.80
2019-05-14T17:22:27.769Z,46.90
2019-05-14T17:24:49.022Z,45.80
2019-05-14T17:27:19.612Z,45.80
2019-05-14T17:29:50.126Z,45.50
2019-05-14T17:32:20.571Z,46.10
2019-05-14T17:34:50.970Z,46.20
2019-05-14T17:37:20.859Z,46.30
2019-05-14T17:39:51.386Z,46.00
2019-05-14T17:42:22.122Z,45.90
2019-05-14T17:44:52.289Z,46.30
2019-05-14T17:47:22.772Z,47.10
2019-05-14T17:49:52.644Z,46.80
2019-05-14T17:52:23.097Z,47.80
2019-05-14T17:54:58.857Z,47.70
2019-05-14T17:57:34.770Z,48.80
2019-05-14T18:00:00.583Z,48.40
2019-05-14T18:02:30.510Z,48.60
2019-05-14T18:05:00.433Z,48.60
2019-05-14T18:07:30.574Z,48.60
2019-05-14T18:10:00.438Z,45.90
2019-05-14T18:12:30.863Z,47.00
2019-05-14T18:15:00.806Z,47.70
2019-05-14T18:17:30.838Z,49.20
2019-05-14T18:20:00.774Z,48.90
2019-05-14T18:22:30.723Z,49.90
2019-05-14T18:25:00.574Z,50.20
2019-05-14T18:27:30.423Z,51.50
2019-05-14T18:30:00.280Z,51.00
2019-05-14T18:32:30.238Z,51.60
2019-05-14T18:35:00.094Z,52.50
2019-05-14T18:37:29.963Z,53.00
2019-05-14T18:39:59.813Z,52.60
2019-05-14T18:42:29.893Z,53.60
2019-05-14T18:44:59.773Z,53.90
2019-05-14T18:47:29.979Z,53.10
2019-05-14T18:49:59.808Z,53.20
2019-05-14T18:52:30.114Z,54.20
2019-05-14T18:54:59.955Z,55.70
2019-05-14T18:57:29.843Z,55.10
2019-05-14T18:59:59.670Z,54.40
2019-05-14T19:02:29.550Z,55.70
2019-05-14T19:04:59.383Z,53.90
2019-05-14T19:07:29.254Z,54.70
2019-05-14T19:09:59.115Z,54.90
2019-05-14T19:12:29.136Z,54.30
2019-05-14T19:14:59.196Z,58.10
2019-05-14T19:17:29.195Z,59.30
2019-05-14T19:19:59.071Z,59.10
2019-05-14T19:22:29.024Z,59.60
2019-05-14T19:24:58.922Z,59.80
2019-05-14T19:27:28.798Z,57.40
2019-05-14T19:30:00.215Z,57.50
2019-05-14T19:32:30.426Z,58.50
2019-05-14T19:35:00.494Z,58.60
2019-05-14T19:37:30.355Z,56.90
2019-05-14T19:40:00.218Z,56.60
2019-05-14T19:42:30.390Z,56.50
2019-05-14T19:45:00.362Z,56.30
2019-05-14T19:47:30.228Z,57.50
2019-05-14T19:50:00.000Z,56.90
2019-05-14T19:52:30.173Z,56.70
2019-05-14T19:55:00.288Z,55.70
2019-05-14T19:57:30.467Z,57.90
2019-05-14T20:00:00.843Z,57.10
2019-05-14T20:02:31.235Z,56.60
2019-05-14T20:05:04.940Z,58.30
2019-05-14T20:07:32.730Z,57.20
2019-05-14T20:10:03.814Z,59.70
2019-05-14T20:12:34.474Z,58.60
2019-05-14T20:15:04.831Z,58.80
2019-05-14T20:17:35.153Z,59.30
2019-05-14T20:20:05.118Z,58.50
2019-05-14T20:22:35.407Z,59.70
2019-05-14T20:25:05.415Z,61.00
2019-05-14T20:27:35.892Z,60.90
2019-05-14T20:30:08.724Z,61.30
2019-05-14T20:32:38.995Z,60.70
2019-05-14T20:35:09.253Z,61.10
2019-05-14T20:37:39.268Z,61.70
2019-05-14T20:40:10.093Z,63.60
2019-05-14T20:42:40.007Z,62.00
2019-05-14T20:45:10.592Z,63.40
2019-05-14T20:47:40.463Z,62.20
2019-05-14T20:50:14.367Z,64.70
2019-05-14T20:52:45.515Z,64.20
2019-05-14T20:55:15.523Z,64.20
2019-05-14T20:57:48.751Z,61.40
2019-05-14T21:00:25.152Z,61.80
2019-05-14T21:03:15.354Z,62.30
2019-05-14T21:05:49.133Z,61.60
2019-05-14T21:08:19.089Z,60.20
2019-05-14T21:10:49.590Z,62.40
2019-05-14T21:13:24.328Z,62.90
2019-05-14T21:15:56.373Z,62.80
2019-05-14T21:18:35.108Z,63.40
2019-05-14T21:21:01.812Z,63.70
2019-05-14T21:23:32.283Z,64.40
2019-05-14T21:26:02.983Z,65.40
2019-05-14T21:28:32.915Z,65.60
2019-05-14T21:31:03.398Z,65.20
2019-05-14T21:33:33.274Z,66.70
2019-05-14T21:36:03.432Z,66.50
2019-05-14T21:38:53.043Z,65.50
2019-05-14T21:41:23.484Z,65.40
2019-05-14T21:44:12.959Z,67.00
2019-05-14T21:46:43.328Z,68.00
2019-05-14T21:49:13.990Z,69.40
2019-05-14T21:51:44.422Z,69.00
2019-05-14T21:54:14.318Z,69.70
2019-05-14T21:56:44.648Z,71.80
2019-05-14T21:59:14.781Z,70.60
2019-05-14T22:01:48.072Z,73.40
2019-05-14T22:04:18.748Z,72.80
2019-05-14T22:06:49.179Z,72.60
2019-05-14T22:09:19.659Z,72.90
2019-05-14T22:11:49.516Z,72.40
2019-05-14T22:14:20.243Z,74.30
2019-05-14T22:16:50.611Z,73.90
2019-05-14T22:19:21.527Z,74.90
2019-05-14T22:21:52.422Z,74.80
2019-05-14T22:24:24.414Z,75.60
2019-05-14T22:26:54.549Z,76.30
2019-05-14T22:29:25.632Z,76.20
2019-05-14T22:31:56.033Z,77.20
2019-05-14T22:34:28.036Z,78.10
2019-05-14T22:36:58.608Z,77.80
2019-05-14T22:39:29.245Z,77.80
2019-05-14T22:42:00.268Z,78.10
2019-05-14T22:44:30.855Z,77.50
2019-05-14T22:47:01.207Z,79.30
2019-05-14T22:49:32.083Z,79.60
2019-05-14T22:52:02.455Z,81.40
2019-05-14T22:54:32.559Z,80.90
2019-05-14T22:57:02.963Z,80.00
2019-05-14T22:59:33.383Z,80.60
2019-05-14T23:02:03.676Z,81.30
2019-05-14T23:04:34.041Z,80.70
2019-05-14T23:07:04.322Z,82.50
2019-05-14T23:09:38.787Z,84.00
2019-05-14T23:12:28.695Z,84.00
2019-05-14T23:14:58.843Z,87.30
2019-05-14T23:17:29.586Z,85.10
2019-05-14T23:19:59.694Z,85.20
2019-05-14T23:22:30.589Z,84.90
2019-05-14T23:25:01.199Z,84.50
2019-05-14T23:27:32.145Z,84.70
2019-05-14T23:30:02.521Z,86.60
2019-05-14T23:32:32.879Z,85.90
2019-05-14T23:35:03.207Z,86.00
2019-05-14T23:37:33.882Z,86.40
2019-05-14T23:40:03.987Z,86.50
2019-05-14T23:42:34.313Z,86.60
2019-05-14T23:45:04.842Z,87.30
2019-05-14T23:47:34.957Z,87.30
2019-05-14T23:50:05.163Z,87.20
2019-05-14T23:52:38.350Z,87.90
2019-05-14T23:55:08.554Z,88.60
2019-05-14T23:57:38.691Z,89.70
